createdAt,value
2022-08-10T00:00:48.065Z,73.98
2022-08-10T00:01:48.049Z,74.38
2022-08-10T00:02:47.989Z,74.58
2022-08-10T00:03:48.104Z,74.28
2022-08-10T00:04:47.982Z,73.68
2022-08-10T00:05:52.579Z,74.01
2022-08-10T00:06:47.823Z,74.01
2022-08-10T00:07:47.947Z,74.01
2022-08-10T00:08:48.039Z,73.81
2022-08-10T00:09:50.970Z,74.21
2022-08-10T00:10:47.791Z,74.32
2022-08-10T00:11:48.163Z,74.72
2022-08-10T00:12:54.398Z,74.92
2022-08-10T00:13:48.274Z,74.41
2022-08-10T00:14:47.751Z,74.82
2022-08-10T00:15:53.650Z,75.02
2022-08-10T00:16:47.720Z,74.62
2022-08-10T00:17:47.750Z,74.82
2022-08-10T00:18:48.103Z,75.02
2022-08-10T00:20:04.225Z,75.15
2022-08-10T00:20:47.671Z,75.96
2022-08-10T00:21:47.698Z,76.16
2022-08-10T00:22:48.840Z,75.56
2022-08-10T00:23:47.721Z,75.96
2022-08-10T00:24:47.636Z,75.96
2022-08-10T00:25:47.594Z,75.76
2022-08-10T00:27:52.603Z,75.96
2022-08-10T00:28:08.031Z,76.46
2022-08-10T00:28:47.671Z,75.76
2022-08-10T00:29:47.662Z,75.35
2022-08-10T00:30:47.632Z,75.76
2022-08-10T00:31:57.688Z,76.06
2022-08-10T00:32:47.591Z,76.16
2022-08-10T00:33:47.757Z,76.67
2022-08-10T00:34:47.642Z,76.06
2022-08-10T00:35:47.638Z,76.06
2022-08-10T00:36:47.592Z,76.16
2022-08-10T00:37:53.945Z,76.87
2022-08-10T00:38:47.557Z,76.60
2022-08-10T00:39:47.564Z,77.11
2022-08-10T00:40:47.633Z,77.20
2022-08-10T00:42:07.114Z,77.31
2022-08-10T00:42:47.592Z,77.31
2022-08-10T00:43:47.789Z,77.11
2022-08-10T00:44:47.520Z,77.31
2022-08-10T00:45:59.223Z,77.61
2022-08-10T00:46:47.467Z,77.91
2022-08-10T00:47:47.592Z,78.01
2022-08-10T00:48:47.487Z,77.81
2022-08-10T00:49:47.432Z,77.70
2022-08-10T00:50:47.389Z,77.20
2022-08-10T00:51:48.697Z,77.44
2022-08-10T00:52:47.440Z,78.65
2022-08-10T00:53:47.351Z,78.25
2022-08-10T00:54:47.643Z,77.75
2022-08-10T00:57:12.603Z,78.55
2022-08-10T00:57:22.156Z,78.85
2022-08-10T00:57:47.270Z,79.16
2022-08-10T00:58:47.353Z,78.65
2022-08-10T00:59:58.468Z,78.45
2022-08-10T01:00:47.273Z,78.55
2022-08-10T01:02:10.774Z,78.96
2022-08-10T01:02:47.341Z,79.86
2022-08-10T01:04:54.216Z,79.49
2022-08-10T01:05:05.675Z,78.89
2022-08-10T01:05:51.272Z,79.49
2022-08-10T01:06:47.391Z,79.49
2022-08-10T01:07:47.152Z,79.60
2022-08-10T01:08:47.403Z,79.80
2022-08-10T01:09:56.891Z,80.40
2022-08-10T01:10:47.281Z,80.30
2022-08-10T01:12:47.341Z,79.80
2022-08-10T01:12:52.684Z,79.90
2022-08-10T01:13:47.230Z,80.00
2022-08-10T01:14:47.208Z,80.70
2022-08-10T01:15:47.191Z,79.90
2022-08-10T01:16:47.351Z,79.90
2022-08-10T01:17:50.213Z,80.40
2022-08-10T01:18:47.239Z,80.50
2022-08-10T01:19:47.079Z,80.74
2022-08-10T01:20:47.231Z,80.40
2022-08-10T01:21:56.559Z,80.64
2022-08-10T01:22:47.119Z,80.94
2022-08-10T01:23:47.271Z,81.04
2022-08-10T01:24:47.071Z,81.24
2022-08-10T01:26:10.336Z,80.84
2022-08-10T01:26:47.031Z,81.95
2022-08-10T01:27:47.111Z,81.45
2022-08-10T01:28:47.031Z,81.55
2022-08-10T01:29:47.041Z,81.15
2022-08-10T01:30:46.991Z,80.94
2022-08-10T01:31:47.032Z,81.55
2022-08-10T01:32:47.470Z,81.15
2022-08-10T01:33:58.961Z,81.65
2022-08-10T01:34:47.112Z,81.75
2022-08-10T01:35:46.914Z,81.55
2022-08-10T01:36:46.956Z,82.05
2022-08-10T01:37:52.072Z,81.95
2022-08-10T01:38:46.920Z,81.55
2022-08-10T01:39:47.158Z,81.65
2022-08-10T01:40:46.911Z,81.45
2022-08-10T01:41:47.361Z,82.15
2022-08-10T01:42:46.998Z,81.95
2022-08-10T01:43:46.872Z,82.15
2022-08-10T01:44:46.836Z,82.25
2022-08-10T01:45:46.957Z,82.15
2022-08-10T01:46:46.951Z,82.86
2022-08-10T01:47:47.001Z,82.05
2022-08-10T01:48:46.832Z,82.25
2022-08-10T01:49:46.829Z,82.25
2022-08-10T01:50:59.117Z,82.05
2022-08-10T01:51:47.220Z,82.45
2022-08-10T01:52:47.032Z,82.50
2022-08-10T01:53:46.876Z,82.29
2022-08-10T01:54:46.837Z,83.10
2022-08-10T01:55:46.833Z,83.20
2022-08-10T01:56:46.744Z,83.00
2022-08-10T01:57:46.675Z,82.59
2022-08-10T01:58:46.751Z,83.40
2022-08-10T01:59:58.611Z,82.90
2022-08-10T02:00:46.752Z,83.40
2022-08-10T02:01:47.081Z,83.20
2022-08-10T02:02:46.878Z,83.30
2022-08-10T02:04:03.552Z,83.80
2022-08-10T02:04:46.711Z,83.80
2022-08-10T02:05:46.631Z,84.01
2022-08-10T02:06:46.641Z,83.60
2022-08-10T02:07:46.743Z,84.01
2022-08-10T02:08:46.911Z,83.91
2022-08-10T02:09:46.589Z,83.60
2022-08-10T02:10:46.871Z,83.70
2022-08-10T02:12:06.581Z,83.91
2022-08-10T02:12:46.711Z,83.60
2022-08-10T02:13:46.552Z,83.64
2022-08-10T02:14:46.560Z,84.05
2022-08-10T02:16:02.254Z,83.44
2022-08-10T02:16:46.559Z,84.15
2022-08-10T02:17:58.125Z,84.05
2022-08-10T02:18:46.523Z,83.74
2022-08-10T02:19:46.487Z,83.84
2022-08-10T02:20:46.470Z,83.95
2022-08-10T02:22:36.900Z,84.35
2022-08-10T02:22:46.440Z,84.65
2022-08-10T02:23:46.396Z,83.84
2022-08-10T02:24:46.391Z,84.25
2022-08-10T02:25:46.400Z,84.45
2022-08-10T02:26:46.391Z,84.35
2022-08-10T02:27:46.426Z,84.85
2022-08-10T02:28:46.436Z,84.35
2022-08-10T02:29:49.119Z,84.45
2022-08-10T02:30:46.350Z,84.25
2022-08-10T02:31:46.435Z,84.75
2022-08-10T02:32:52.738Z,85.25
2022-08-10T02:33:56.464Z,85.16
2022-08-10T02:34:46.447Z,85.16
2022-08-10T02:35:54.561Z,85.16
2022-08-10T02:36:46.312Z,84.95
2022-08-10T02:37:46.351Z,85.25
2022-08-10T02:38:59.626Z,85.05
2022-08-10T02:39:46.337Z,84.95
2022-08-10T02:45:06.354Z,85.56
2022-08-10T02:45:31.729Z,85.36
2022-08-10T02:45:37.811Z,84.79
2022-08-10T02:46:37.112Z,85.25
2022-08-10T02:47:51.220Z,85.19
2022-08-10T02:48:37.120Z,85.36
2022-08-10T02:49:37.192Z,85.36
2022-08-10T02:50:37.031Z,85.70
2022-08-10T02:52:06.206Z,85.19
2022-08-10T02:52:37.209Z,85.60
2022-08-10T02:53:54.899Z,85.90
2022-08-10T02:54:37.029Z,85.80
2022-08-10T02:55:37.038Z,85.50
2022-08-10T02:56:37.111Z,85.80
2022-08-10T02:57:36.950Z,85.80
2022-08-10T02:58:37.030Z,85.80
2022-08-10T02:59:40.151Z,86.00
2022-08-10T03:00:36.911Z,85.80
2022-08-10T03:01:37.082Z,86.10
2022-08-10T03:02:37.328Z,86.21
2022-08-10T03:03:36.850Z,86.21
2022-08-10T03:04:54.649Z,86.30
2022-08-10T03:05:36.830Z,86.30
2022-08-10T03:06:36.792Z,86.00
2022-08-10T03:07:43.173Z,86.45
2022-08-10T03:08:36.856Z,86.35
2022-08-10T03:09:36.835Z,86.75
2022-08-10T03:10:39.494Z,86.95
2022-08-10T03:12:37.651Z,86.45
2022-08-10T03:12:43.392Z,87.26
2022-08-10T03:13:36.715Z,87.15
2022-08-10T03:14:36.759Z,86.85
2022-08-10T03:15:36.923Z,86.65
2022-08-10T03:16:36.790Z,87.05
2022-08-10T03:17:36.758Z,86.95
2022-08-10T03:18:36.717Z,86.75
2022-08-10T03:20:34.626Z,87.05
2022-08-10T03:20:43.162Z,86.95
2022-08-10T03:21:36.635Z,86.75
2022-08-10T03:22:36.889Z,86.95
2022-08-10T03:23:36.672Z,86.95
2022-08-10T03:24:36.710Z,86.85
2022-08-10T03:25:36.679Z,87.46
2022-08-10T03:26:36.780Z,87.05
2022-08-10T03:27:36.622Z,87.26
2022-08-10T03:28:36.693Z,86.95
2022-08-10T03:30:25.764Z,87.15
2022-08-10T03:30:37.864Z,87.46
2022-08-10T03:31:36.571Z,87.66
2022-08-10T03:32:36.768Z,88.10
2022-08-10T03:33:36.653Z,88.10
2022-08-10T03:34:36.692Z,87.70
2022-08-10T03:35:36.571Z,87.60
2022-08-10T03:36:44.089Z,87.60
2022-08-10T03:37:36.576Z,87.81
2022-08-10T03:38:36.542Z,88.31
2022-08-10T03:39:36.654Z,88.41
2022-08-10T03:40:45.104Z,88.21
2022-08-10T03:41:36.573Z,88.61
2022-08-10T03:42:36.718Z,88.31
2022-08-10T03:43:36.536Z,88.10
2022-08-10T03:44:36.501Z,88.01
2022-08-10T03:45:54.518Z,87.81
2022-08-10T03:46:36.492Z,88.21
2022-08-10T03:47:36.461Z,88.31
2022-08-10T03:48:48.515Z,88.21
2022-08-10T03:49:36.484Z,88.31
2022-08-10T03:50:51.138Z,88.65
2022-08-10T03:51:36.647Z,88.35
2022-08-10T03:52:36.732Z,88.35
2022-08-10T03:54:04.567Z,88.85
2022-08-10T03:54:36.481Z,88.45
2022-08-10T03:56:29.156Z,88.55
2022-08-10T03:56:36.491Z,88.85
2022-08-10T03:57:36.379Z,88.75
2022-08-10T03:58:36.613Z,88.85
2022-08-10T03:59:36.380Z,89.16
2022-08-10T04:00:36.457Z,89.16
2022-08-10T04:02:46.744Z,89.16
2022-08-10T04:02:53.260Z,89.56
2022-08-10T04:03:36.413Z,88.96
2022-08-10T04:04:36.375Z,88.75
2022-08-10T04:05:38.594Z,89.46
2022-08-10T04:06:36.296Z,89.26
2022-08-10T04:07:36.301Z,88.96
2022-08-10T04:08:36.308Z,88.75
2022-08-10T04:09:55.496Z,89.06
2022-08-10T04:10:36.458Z,88.96
2022-08-10T04:11:36.252Z,88.85
2022-08-10T04:12:36.691Z,89.16
2022-08-10T04:13:36.212Z,89.46
2022-08-10T04:14:49.090Z,89.36
2022-08-10T04:15:36.211Z,89.06
2022-08-10T04:16:36.251Z,89.46
2022-08-10T04:18:02.810Z,89.66
2022-08-10T04:18:36.171Z,89.36
2022-08-10T04:19:36.302Z,89.36
2022-08-10T04:20:36.172Z,89.46
2022-08-10T04:21:36.139Z,89.36
2022-08-10T04:22:36.527Z,89.36
2022-08-10T04:23:36.413Z,89.26
2022-08-10T04:24:36.140Z,89.26
2022-08-10T04:25:36.093Z,89.66
2022-08-10T04:26:36.092Z,89.26
2022-08-10T04:27:36.100Z,89.16
2022-08-10T04:28:36.146Z,89.26
2022-08-10T04:29:36.053Z,89.56
2022-08-10T04:30:36.053Z,89.36
2022-08-10T04:31:36.131Z,89.06
2022-08-10T04:32:36.245Z,89.46
2022-08-10T04:33:36.011Z,89.46
2022-08-10T04:34:36.133Z,89.26
2022-08-10T04:35:36.013Z,89.16
2022-08-10T04:36:36.051Z,89.16
2022-08-10T04:37:36.023Z,89.26
2022-08-10T04:38:36.001Z,89.26
2022-08-10T04:39:36.261Z,89.26
2022-08-10T04:40:36.014Z,89.16
2022-08-10T04:41:35.893Z,89.46
2022-08-10T04:42:36.178Z,89.16
2022-08-10T04:43:36.057Z,89.26
2022-08-10T04:44:35.813Z,88.96
2022-08-10T04:45:47.537Z,89.06
2022-08-10T04:46:58.408Z,89.97
2022-08-10T04:47:58.044Z,90.37
2022-08-10T04:48:43.507Z,90.37
2022-08-10T04:49:56.047Z,89.76
2022-08-10T04:50:35.792Z,90.17
2022-08-10T04:51:35.754Z,89.97
2022-08-10T04:52:36.011Z,90.07
2022-08-10T04:54:02.601Z,89.76
2022-08-10T04:54:35.706Z,90.17
2022-08-10T04:55:35.782Z,89.76
2022-08-10T04:56:35.732Z,89.56
2022-08-10T04:57:35.861Z,89.97
2022-08-10T04:58:35.741Z,90.37
2022-08-10T04:59:35.785Z,89.97
2022-08-10T05:00:35.793Z,89.76
2022-08-10T05:02:27.139Z,90.17
2022-08-10T05:02:43.658Z,90.27
2022-08-10T05:03:35.741Z,90.27
2022-08-10T05:04:40.862Z,90.07
2022-08-10T05:05:35.704Z,89.87
2022-08-10T05:06:35.812Z,90.27
2022-08-10T05:07:51.463Z,89.76
2022-08-10T05:08:35.580Z,90.07
2022-08-10T05:10:02.867Z,90.07
2022-08-10T05:10:35.652Z,90.27
2022-08-10T05:11:35.611Z,90.47
2022-08-10T05:12:36.165Z,90.37
2022-08-10T05:13:35.540Z,90.47
2022-08-10T05:14:35.543Z,90.37
2022-08-10T05:15:35.541Z,90.47
2022-08-10T05:16:35.868Z,90.07
2022-08-10T05:17:35.584Z,90.27
2022-08-10T05:18:35.551Z,90.07
2022-08-10T05:20:04.771Z,91.08
2022-08-10T05:20:35.674Z,90.67
2022-08-10T05:22:03.734Z,90.63
2022-08-10T05:22:36.042Z,90.53
2022-08-10T05:23:35.662Z,90.83
2022-08-10T05:24:35.633Z,90.73
2022-08-10T05:25:37.454Z,90.23
2022-08-10T05:26:40.483Z,90.12
2022-08-10T05:27:35.467Z,90.03
2022-08-10T05:28:35.469Z,90.33
2022-08-10T05:29:35.424Z,90.12
2022-08-10T05:30:35.389Z,89.83
2022-08-10T05:31:35.431Z,89.92
2022-08-10T05:32:56.912Z,90.12
2022-08-10T05:33:35.341Z,90.12
2022-08-10T05:34:35.451Z,89.88
2022-08-10T05:35:56.926Z,89.88
2022-08-10T05:36:35.342Z,89.88
2022-08-10T05:38:12.192Z,89.68
2022-08-10T05:38:35.349Z,89.88
2022-08-10T05:39:35.369Z,89.48
2022-08-10T05:40:35.348Z,89.07
2022-08-10T05:41:35.351Z,88.87
2022-08-10T05:42:35.409Z,88.47
2022-08-10T05:43:35.301Z,88.67
2022-08-10T05:44:35.290Z,88.37
2022-08-10T05:46:18.018Z,88.23
2022-08-10T05:46:35.262Z,87.82
2022-08-10T05:48:41.894Z,87.32
2022-08-10T05:49:03.030Z,86.91
2022-08-10T05:49:35.349Z,86.71
2022-08-10T05:50:35.225Z,86.91
2022-08-10T05:51:35.263Z,86.81
2022-08-10T05:52:35.345Z,86.81
2022-08-10T05:54:01.059Z,86.61
2022-08-10T05:54:35.112Z,87.07
2022-08-10T05:55:35.142Z,86.36
2022-08-10T05:56:53.279Z,85.86
2022-08-10T05:57:35.147Z,85.66
2022-08-10T05:58:35.148Z,85.86
2022-08-10T06:00:29.450Z,86.02
2022-08-10T06:00:49.653Z,85.52
2022-08-10T06:01:35.173Z,85.42
2022-08-10T06:02:35.883Z,85.72
2022-08-10T06:03:35.096Z,85.72
2022-08-10T06:04:35.100Z,84.91
2022-08-10T06:05:35.063Z,84.71
2022-08-10T06:06:35.023Z,84.88
2022-08-10T06:07:35.222Z,84.37
2022-08-10T06:08:35.034Z,83.76
2022-08-10T06:09:34.990Z,84.27
2022-08-10T06:10:35.501Z,84.57
2022-08-10T06:12:26.527Z,84.17
2022-08-10T06:12:54.480Z,82.71
2022-08-10T06:13:59.699Z,83.42
2022-08-10T06:14:34.945Z,83.02
2022-08-10T06:15:50.536Z,82.92
2022-08-10T06:16:34.987Z,81.71
2022-08-10T06:17:34.910Z,82.18
2022-08-10T06:18:35.022Z,81.77
2022-08-10T06:19:34.902Z,81.37
2022-08-10T06:20:36.188Z,80.57
2022-08-10T06:21:35.182Z,80.06
2022-08-10T06:22:35.066Z,79.25
2022-08-10T06:23:34.800Z,79.42
2022-08-10T06:24:34.861Z,79.32
2022-08-10T06:26:34.826Z,79.62
2022-08-10T06:27:35.141Z,79.42
2022-08-10T06:28:34.822Z,79.42
2022-08-10T06:29:34.900Z,79.08
2022-08-10T06:30:34.848Z,79.79
2022-08-10T06:31:46.777Z,79.88
2022-08-10T06:32:34.936Z,78.58
2022-08-10T06:33:34.936Z,79.08
2022-08-10T06:34:34.742Z,78.58
2022-08-10T06:35:34.748Z,78.54
2022-08-10T06:36:35.101Z,78.54
2022-08-10T06:37:34.700Z,76.83
2022-08-10T06:38:34.701Z,77.94
2022-08-10T06:39:35.933Z,78.03
2022-08-10T06:40:34.699Z,78.44
2022-08-10T06:41:57.876Z,78.20
2022-08-10T06:42:34.870Z,76.89
2022-08-10T06:43:34.622Z,77.39
2022-08-10T06:44:34.663Z,77.70
2022-08-10T06:45:34.733Z,77.29
2022-08-10T06:46:34.677Z,77.20
2022-08-10T06:47:34.619Z,76.69
2022-08-10T06:48:34.577Z,77.26
2022-08-10T06:49:34.583Z,77.16
2022-08-10T06:50:55.891Z,76.56
2022-08-10T06:51:34.745Z,76.56
2022-08-10T06:52:34.904Z,75.05
2022-08-10T06:53:52.094Z,74.85
2022-08-10T06:54:34.543Z,75.55
2022-08-10T06:55:50.103Z,76.42
2022-08-10T06:56:37.952Z,75.51
2022-08-10T06:57:34.688Z,75.42
2022-08-10T06:58:34.539Z,74.11
2022-08-10T06:59:34.656Z,74.07
2022-08-10T07:00:34.844Z,75.18
2022-08-10T07:01:34.516Z,74.48
2022-08-10T07:02:34.877Z,75.68
2022-08-10T07:03:34.422Z,74.27
2022-08-10T07:04:34.495Z,74.68
2022-08-10T07:05:34.469Z,74.14
2022-08-10T07:06:34.418Z,74.84
2022-08-10T07:07:34.464Z,73.13
2022-08-10T07:08:34.456Z,73.94
2022-08-10T07:09:34.377Z,74.24
2022-08-10T07:10:46.120Z,73.64
2022-08-10T07:11:34.497Z,73.74
2022-08-10T07:12:34.605Z,73.94
2022-08-10T07:14:17.161Z,74.51
2022-08-10T07:14:34.382Z,73.60
2022-08-10T07:15:59.555Z,73.30
2022-08-10T07:16:34.307Z,73.40
2022-08-10T07:17:39.097Z,72.50
2022-08-10T07:18:34.380Z,72.77
2022-08-10T07:19:34.308Z,73.16
2022-08-10T07:20:34.297Z,73.27
2022-08-10T07:21:34.409Z,72.16
2022-08-10T07:23:55.094Z,72.36
2022-08-10T07:24:05.036Z,71.56
2022-08-10T07:24:34.261Z,72.06
2022-08-10T07:25:34.202Z,71.33
2022-08-10T07:26:34.227Z,71.73
2022-08-10T07:27:39.103Z,71.03
2022-08-10T07:28:34.186Z,71.93
2022-08-10T07:29:54.425Z,71.33
2022-08-10T07:30:34.206Z,68.59
2022-08-10T07:31:56.885Z,69.99
2022-08-10T07:32:34.360Z,68.69
2022-08-10T07:33:34.209Z,68.39
2022-08-10T07:34:34.429Z,70.09
2022-08-10T07:35:42.843Z,69.26
2022-08-10T07:36:34.072Z,69.26
2022-08-10T07:37:34.301Z,67.76
2022-08-10T07:38:34.101Z,68.76
2022-08-10T07:39:59.578Z,67.66
2022-08-10T07:40:34.163Z,68.93
2022-08-10T07:41:34.068Z,69.12
2022-08-10T07:42:34.068Z,66.52
2022-08-10T07:43:34.097Z,67.19
2022-08-10T07:44:34.065Z,67.40
2022-08-10T07:45:34.022Z,68.39
2022-08-10T07:46:34.061Z,67.69
2022-08-10T07:47:53.558Z,67.56
2022-08-10T07:48:33.982Z,67.16
2022-08-10T07:49:34.018Z,67.56
2022-08-10T07:50:35.450Z,66.96
2022-08-10T07:51:33.947Z,68.06
2022-08-10T07:52:34.301Z,68.33
2022-08-10T07:53:34.022Z,66.83
2022-08-10T07:54:33.969Z,68.33
2022-08-10T07:56:07.390Z,65.23
2022-08-10T07:56:48.345Z,67.13
2022-08-10T07:57:38.209Z,65.30
2022-08-10T07:58:33.980Z,65.80
2022-08-10T07:59:33.910Z,66.30
2022-08-10T08:00:33.903Z,65.50
2022-08-10T08:01:33.940Z,65.07
2022-08-10T08:02:35.810Z,63.57
2022-08-10T08:03:33.804Z,63.97
2022-08-10T08:04:33.897Z,63.47
2022-08-10T08:05:58.365Z,64.84
2022-08-10T08:06:34.179Z,63.74
2022-08-10T08:07:34.020Z,61.74
2022-08-10T08:08:33.832Z,62.61
2022-08-10T08:09:33.825Z,63.11
2022-08-10T08:10:34.033Z,62.71
2022-08-10T08:11:33.990Z,62.08
2022-08-10T08:12:37.285Z,63.68
2022-08-10T08:13:33.964Z,63.48
2022-08-10T08:14:33.873Z,62.45
2022-08-10T08:16:21.560Z,63.05
2022-08-10T08:16:33.791Z,62.45
2022-08-10T08:17:36.225Z,60.96
2022-08-10T08:18:36.851Z,63.25
2022-08-10T08:19:37.570Z,61.46
2022-08-10T08:20:33.753Z,59.96
2022-08-10T08:24:05.689Z,63.15
2022-08-10T08:24:31.879Z,61.66
2022-08-10T08:24:38.854Z,60.63
2022-08-10T08:25:28.912Z,62.23
2022-08-10T08:26:30.312Z,61.43
2022-08-10T08:27:28.954Z,59.21
2022-08-10T08:28:28.915Z,59.01
2022-08-10T08:29:28.782Z,61.00
2022-08-10T08:30:28.833Z,60.77
2022-08-10T08:31:28.874Z,60.27
2022-08-10T08:32:28.914Z,59.98
2022-08-10T08:33:42.559Z,60.14
2022-08-10T08:34:28.915Z,60.64
2022-08-10T08:35:29.131Z,60.44
2022-08-10T08:36:28.673Z,58.45
2022-08-10T08:38:30.373Z,60.44
2022-08-10T08:38:39.314Z,58.23
2022-08-10T08:39:28.725Z,57.66
2022-08-10T08:40:28.529Z,57.34
2022-08-10T08:41:28.613Z,57.83
2022-08-10T08:42:28.569Z,58.92
2022-08-10T08:43:31.505Z,58.43
2022-08-10T08:44:34.239Z,58.60
2022-08-10T08:45:28.532Z,57.70
2022-08-10T08:46:28.589Z,58.30
2022-08-10T08:48:04.960Z,58.37
2022-08-10T08:48:28.730Z,55.99
2022-08-10T08:50:04.468Z,58.44
2022-08-10T08:50:28.822Z,56.56
2022-08-10T08:52:07.929Z,56.76
2022-08-10T08:52:28.505Z,56.66
2022-08-10T08:54:01.183Z,56.66
2022-08-10T08:54:28.482Z,54.85
2022-08-10T08:56:03.012Z,53.56
2022-08-10T08:56:28.404Z,56.63
2022-08-10T08:57:49.203Z,56.80
2022-08-10T08:58:28.361Z,56.30
2022-08-10T08:59:28.571Z,54.32
2022-08-10T09:00:28.361Z,55.61
2022-08-10T09:01:37.953Z,53.43
2022-08-10T09:02:28.491Z,54.22
2022-08-10T09:03:28.681Z,55.88
2022-08-10T09:04:28.323Z,53.70
2022-08-10T09:05:28.402Z,55.19
2022-08-10T09:06:28.316Z,54.37
2022-08-10T09:08:01.005Z,55.16
2022-08-10T09:08:28.330Z,50.71
2022-08-10T09:09:28.396Z,53.95
2022-08-10T09:10:28.238Z,53.25
2022-08-10T09:11:28.361Z,51.28
2022-08-10T09:12:28.240Z,51.84
2022-08-10T09:13:28.393Z,53.63
2022-08-10T09:14:28.225Z,51.05
2022-08-10T09:15:40.237Z,53.11
2022-08-10T09:16:28.276Z,53.11
2022-08-10T09:17:28.275Z,51.42
2022-08-10T09:18:28.356Z,50.90
2022-08-10T09:19:36.140Z,52.09
2022-08-10T09:20:28.195Z,52.17
2022-08-10T09:21:28.193Z,50.59
2022-08-10T09:22:28.385Z,50.76
2022-08-10T09:24:01.956Z,50.66
2022-08-10T09:24:28.233Z,52.73
2022-08-10T09:25:28.156Z,49.35
2022-08-10T09:26:28.088Z,49.84
2022-08-10T09:27:28.106Z,50.12
2022-08-10T09:28:28.114Z,47.85
2022-08-10T09:29:28.514Z,48.81
2022-08-10T09:30:28.401Z,47.92
2022-08-10T09:31:28.150Z,47.70
2022-08-10T09:36:17.632Z,45.04
2022-08-10T09:36:33.784Z,47.60
2022-08-10T09:36:39.430Z,44.80
2022-08-10T09:37:39.475Z,45.59
2022-08-10T09:38:38.971Z,44.29
2022-08-10T09:40:55.880Z,45.67
2022-08-10T09:41:07.767Z,46.35
2022-08-10T09:41:39.097Z,44.68
2022-08-10T09:42:38.955Z,43.48
2022-08-10T09:43:39.312Z,46.01
2022-08-10T09:44:57.354Z,44.93
2022-08-10T09:45:39.121Z,42.06
2022-08-10T09:46:38.974Z,39.80
2022-08-10T09:47:58.518Z,40.96
2022-08-10T09:48:38.996Z,41.55
2022-08-10T09:49:54.293Z,44.67
2022-08-10T09:51:16.288Z,41.31
2022-08-10T09:51:47.412Z,43.26
2022-08-10T09:52:38.886Z,43.23
2022-08-10T09:53:38.953Z,41.37
2022-08-10T09:54:38.905Z,37.82
2022-08-10T09:56:18.538Z,40.56
2022-08-10T09:56:39.099Z,39.59
2022-08-10T09:57:43.303Z,39.66
2022-08-10T09:58:39.001Z,39.37
2022-08-10T10:00:00.460Z,39.64
2022-08-10T10:00:38.942Z,38.18
2022-08-10T10:02:00.516Z,37.79
2022-08-10T10:02:38.804Z,37.79
2022-08-10T10:03:38.901Z,41.29
2022-08-10T10:04:38.960Z,41.17
2022-08-10T10:05:39.051Z,39.78
2022-08-10T10:06:38.843Z,37.12
2022-08-10T10:07:38.765Z,38.30
2022-08-10T10:08:42.774Z,34.67
2022-08-10T10:09:38.728Z,33.72
2022-08-10T10:10:42.211Z,35.32
2022-08-10T10:11:38.763Z,34.24
2022-08-10T10:12:38.831Z,35.04
2022-08-10T10:13:49.998Z,36.72
2022-08-10T10:14:38.673Z,37.43
2022-08-10T10:15:38.686Z,36.06
2022-08-10T10:16:38.712Z,40.66
2022-08-10T10:17:38.878Z,41.31
2022-08-10T10:18:38.684Z,38.65
2022-08-10T10:19:40.885Z,39.20
2022-08-10T10:20:38.570Z,37.22
2022-08-10T10:21:54.810Z,36.11
2022-08-10T10:22:38.643Z,36.31
2022-08-10T10:23:38.630Z,33.75
2022-08-10T10:24:38.629Z,37.45
2022-08-10T10:25:50.100Z,37.33
2022-08-10T10:26:38.522Z,35.46
2022-08-10T10:27:39.006Z,31.76
2022-08-10T10:29:11.766Z,32.26
2022-08-10T10:29:57.611Z,33.54
2022-08-10T10:30:38.648Z,31.98
2022-08-10T10:31:38.525Z,34.14
2022-08-10T10:32:38.488Z,37.73
2022-08-10T10:33:38.524Z,36.84
2022-08-10T10:34:38.521Z,35.94
2022-08-10T10:35:38.504Z,32.42
2022-08-10T10:36:38.817Z,33.77
2022-08-10T10:38:01.382Z,33.28
2022-08-10T10:38:38.571Z,33.77
2022-08-10T10:39:38.604Z,34.05
2022-08-10T10:40:38.718Z,34.24
2022-08-10T10:41:56.152Z,31.41
2022-08-10T10:42:45.937Z,34.53
2022-08-10T10:43:38.889Z,33.26
2022-08-10T10:44:42.156Z,32.39
2022-08-10T10:45:50.062Z,30.44
2022-08-10T10:46:38.445Z,33.49
2022-08-10T10:47:38.942Z,35.15
2022-08-10T10:48:38.663Z,35.73
2022-08-10T10:49:38.415Z,34.74
2022-08-10T10:50:38.383Z,34.33
2022-08-10T10:51:38.427Z,32.37
2022-08-10T10:52:38.514Z,29.85
2022-08-10T10:53:38.624Z,32.96
2022-08-10T10:54:38.427Z,31.50
2022-08-10T10:56:14.795Z,33.64
2022-08-10T10:56:38.474Z,33.43
2022-08-10T10:57:58.435Z,31.00
2022-08-10T10:58:38.334Z,32.05
2022-08-10T10:59:55.591Z,31.18
2022-08-10T11:00:38.350Z,32.37
2022-08-10T11:01:38.344Z,31.51
2022-08-10T11:02:38.264Z,29.69
2022-08-10T11:03:38.398Z,33.31
2022-08-10T11:04:38.374Z,30.98
2022-08-10T11:05:38.316Z,33.80
2022-08-10T11:06:40.561Z,33.59
2022-08-10T11:07:38.306Z,33.77
2022-08-10T11:08:38.480Z,31.54
2022-08-10T11:10:03.401Z,32.11
2022-08-10T11:10:46.241Z,33.48
2022-08-10T11:12:01.397Z,31.13
2022-08-10T11:12:40.724Z,31.32
2022-08-10T11:14:26.588Z,29.19
2022-08-10T11:14:38.196Z,30.57
2022-08-10T11:15:42.857Z,33.88
2022-08-10T11:16:38.236Z,32.89
2022-08-10T11:17:38.426Z,30.26
2022-08-10T11:18:38.191Z,32.99
2022-08-10T11:20:02.342Z,30.44
2022-08-10T11:20:38.434Z,33.34
2022-08-10T11:21:38.229Z,31.87
2022-08-10T11:22:38.352Z,33.23
2022-08-10T11:23:38.368Z,30.50
2022-08-10T11:24:47.309Z,31.27
2022-08-10T11:25:38.109Z,31.57
2022-08-10T11:26:38.427Z,30.50
2022-08-10T11:27:38.284Z,30.41
2022-08-10T11:28:38.069Z,30.80
2022-08-10T11:29:41.485Z,32.15
2022-08-10T11:30:38.064Z,30.50
2022-08-10T11:31:38.042Z,28.45
2022-08-10T11:32:38.064Z,28.97
2022-08-10T11:34:03.763Z,30.83
2022-08-10T11:35:10.280Z,29.76
2022-08-10T11:35:38.023Z,29.61
2022-08-10T11:36:38.145Z,31.95
2022-08-10T11:38:31.163Z,34.09
2022-08-10T11:38:57.537Z,33.28
2022-08-10T11:39:38.053Z,29.18
2022-08-10T11:40:38.116Z,29.65
2022-08-10T11:42:08.838Z,29.93
2022-08-10T11:42:38.215Z,30.12
2022-08-10T11:43:37.994Z,30.61
2022-08-10T11:44:37.928Z,30.61
2022-08-10T11:45:37.954Z,31.10
2022-08-10T11:46:37.950Z,29.96
2022-08-10T11:47:37.992Z,29.38
2022-08-10T11:48:54.162Z,27.55
2022-08-10T11:49:38.066Z,29.81
2022-08-10T11:50:37.948Z,29.92
2022-08-10T11:51:38.271Z,29.72
2022-08-10T11:52:38.126Z,29.13
2022-08-10T11:53:39.157Z,31.54
2022-08-10T11:54:37.864Z,30.39
2022-08-10T11:55:38.135Z,31.07
2022-08-10T11:56:38.024Z,30.19
2022-08-10T11:57:54.094Z,29.24
2022-08-10T11:58:38.257Z,30.49
2022-08-10T11:59:37.858Z,29.24
2022-08-10T12:00:38.025Z,30.00
2022-08-10T12:01:37.816Z,29.24
2022-08-10T12:02:38.129Z,30.70
2022-08-10T12:03:37.873Z,29.93
2022-08-10T12:04:38.225Z,31.20
2022-08-10T12:05:53.854Z,31.88
2022-08-10T12:06:54.731Z,31.28
2022-08-10T12:09:24.013Z,30.98
2022-08-10T12:10:14.095Z,27.08
2022-08-10T12:10:19.595Z,28.49
2022-08-10T12:11:24.521Z,29.67
2022-08-10T12:12:19.389Z,30.47
2022-08-10T12:13:19.261Z,31.52
2022-08-10T12:14:22.259Z,30.55
2022-08-10T12:15:19.239Z,28.50
2022-08-10T12:16:19.524Z,30.29
2022-08-10T12:17:19.182Z,31.93
2022-08-10T12:18:19.187Z,30.45
2022-08-10T12:19:19.185Z,30.83
2022-08-10T12:20:19.184Z,30.03
2022-08-10T12:21:21.497Z,30.70
2022-08-10T12:22:19.181Z,28.44
2022-08-10T12:23:19.149Z,30.39
2022-08-10T12:24:19.234Z,30.57
2022-08-10T12:25:56.255Z,30.75
2022-08-10T12:26:19.132Z,27.75
2022-08-10T12:27:19.342Z,26.50
2022-08-10T12:28:19.154Z,28.94
2022-08-10T12:29:22.417Z,28.38
2022-08-10T12:30:19.174Z,28.39
2022-08-10T12:31:19.115Z,29.07
2022-08-10T12:32:25.710Z,30.63
2022-08-10T12:33:19.115Z,29.75
2022-08-10T12:34:19.125Z,29.27
2022-08-10T12:35:22.015Z,28.97
2022-08-10T12:36:19.123Z,30.42
2022-08-10T12:37:19.043Z,29.04
2022-08-10T12:38:19.038Z,29.43
2022-08-10T12:39:19.230Z,28.05
2022-08-10T12:40:36.131Z,28.92
2022-08-10T12:41:19.040Z,28.32
2022-08-10T12:42:37.043Z,27.54
2022-08-10T12:44:07.965Z,28.40
2022-08-10T12:44:18.996Z,28.99
2022-08-10T12:45:18.998Z,28.20
2022-08-10T12:46:18.959Z,27.92
2022-08-10T12:47:18.966Z,29.16
2022-08-10T12:48:18.915Z,29.16
2022-08-10T12:49:18.987Z,28.88
2022-08-10T12:50:32.088Z,25.97
2022-08-10T12:51:18.935Z,27.37
2022-08-10T12:52:18.948Z,28.26
2022-08-10T12:53:19.027Z,28.75
2022-08-10T12:54:31.883Z,29.71
2022-08-10T12:55:18.912Z,26.69
2022-08-10T12:56:18.908Z,29.11
2022-08-10T12:57:18.994Z,27.28
2022-08-10T12:58:58.688Z,26.98
2022-08-10T12:59:18.907Z,27.78
2022-08-10T13:00:18.870Z,29.32